createdAt,value
2022-10-05T00:05:13.986Z,3.28
2022-10-05T00:11:18.802Z,3.38
2022-10-05T00:17:23.439Z,3.38
2022-10-05T00:23:30.297Z,3.03
2022-10-05T00:29:37.377Z,3.13
2022-10-05T00:35:41.091Z,3.22
2022-10-05T00:42:09.892Z,3.33
2022-10-05T00:48:17.880Z,3.15
2022-10-05T00:54:25.996Z,3.35
2022-10-05T01:00:32.729Z,3.63
2022-10-05T01:06:41.907Z,2.95
2022-10-05T01:12:50.941Z,2.70
2022-10-05T01:19:00.931Z,2.60
2022-10-05T01:25:09.749Z,2.40
2022-10-05T01:31:18.707Z,2.30
2022-10-05T01:37:27.010Z,2.07
2022-10-05T01:43:32.995Z,1.90
2022-10-05T01:49:45.851Z,1.52
2022-10-05T01:55:52.424Z,2.08
2022-10-05T02:01:59.292Z,1.73
2022-10-05T02:08:08.512Z,1.95
2022-10-05T02:14:17.187Z,1.95
2022-10-05T02:20:24.386Z,1.73
2022-10-05T02:26:29.702Z,1.85
2022-10-05T02:32:36.161Z,1.73
2022-10-05T02:38:43.685Z,1.50
2022-10-05T02:44:54.902Z,1.50
2022-10-05T02:51:04.049Z,1.20
2022-10-05T02:57:11.897Z,1.33
2022-10-05T03:03:20.398Z,1.00
2022-10-05T03:09:24.960Z,1.40
2022-10-05T03:15:34.924Z,1.20
2022-10-05T03:21:54.369Z,1.33
2022-10-05T03:28:01.233Z,1.60
2022-10-05T03:34:09.117Z,1.58
2022-10-05T03:40:22.237Z,1.27
2022-10-05T03:46:29.831Z,1.67
2022-10-05T03:52:36.655Z,1.48
2022-10-05T03:58:44.127Z,1.55
2022-10-05T04:04:51.534Z,1.73
2022-10-05T04:10:57.127Z,1.70
2022-10-05T04:17:04.918Z,1.48
2022-10-05T04:23:14.954Z,1.27
2022-10-05T04:29:31.229Z,1.65
2022-10-05T04:35:41.163Z,1.60
2022-10-05T04:41:50.654Z,1.67
2022-10-05T04:48:01.404Z,1.70
2022-10-05T04:54:16.801Z,2.83
2022-10-05T05:00:24.809Z,2.35
2022-10-05T05:06:34.549Z,3.10
2022-10-05T05:12:45.942Z,3.55
2022-10-05T05:19:00.014Z,2.13
2022-10-05T05:25:14.347Z,2.47
2022-10-05T05:31:21.940Z,2.42
2022-10-05T05:37:30.045Z,2.50
2022-10-05T05:43:36.983Z,2.20
2022-10-05T05:49:49.114Z,1.95
2022-10-05T05:55:55.448Z,2.25
2022-10-05T06:02:01.655Z,1.80
2022-10-05T06:08:09.046Z,2.17
2022-10-05T06:14:15.604Z,1.60
2022-10-05T06:20:22.702Z,1.50
2022-10-05T06:26:37.135Z,1.63
2022-10-05T06:32:49.129Z,1.20
2022-10-05T06:39:03.834Z,1.30
2022-10-05T06:45:16.925Z,1.58
2022-10-05T06:51:24.014Z,1.05
2022-10-05T06:57:39.288Z,1.02
2022-10-05T07:03:49.630Z,1.08
2022-10-05T07:09:57.513Z,1.10
2022-10-05T07:16:05.663Z,1.90
2022-10-05T07:22:22.302Z,1.50
2022-10-05T07:28:30.513Z,1.30
2022-10-05T07:34:41.965Z,1.30
2022-10-05T07:40:51.600Z,1.30
2022-10-05T07:46:56.930Z,1.50
2022-10-05T07:53:03.072Z,1.90
2022-10-05T07:59:09.599Z,2.17
2022-10-05T08:05:15.201Z,1.70
2022-10-05T08:11:19.542Z,3.45
2022-10-05T08:17:28.337Z,3.70
2022-10-05T08:23:38.738Z,3.55
2022-10-05T08:29:44.667Z,3.60
2022-10-05T08:35:56.041Z,3.25
2022-10-05T08:42:11.750Z,3.10
2022-10-05T08:48:26.279Z,2.53
2022-10-05T08:54:43.733Z,2.97
2022-10-05T09:00:53.556Z,2.83
2022-10-05T09:07:07.417Z,2.65
2022-10-05T09:13:21.262Z,3.38
2022-10-05T09:19:38.284Z,2.78
2022-10-05T09:25:44.314Z,3.15
2022-10-05T09:31:59.396Z,3.27
2022-10-05T09:38:12.915Z,3.22
2022-10-05T09:44:33.088Z,2.70
2022-10-05T09:50:59.722Z,2.60
2022-10-05T09:57:09.821Z,3.08
2022-10-05T10:03:25.944Z,2.55
2022-10-05T10:09:38.688Z,2.30
2022-10-05T10:15:57.787Z,2.80
2022-10-05T10:22:13.049Z,1.83
2022-10-05T10:28:29.111Z,2.13
2022-10-05T10:34:38.984Z,2.00
2022-10-05T10:40:51.921Z,2.00
2022-10-05T10:47:06.504Z,1.75
2022-10-05T10:53:19.331Z,2.08
2022-10-05T10:59:33.835Z,1.40
2022-10-05T11:05:48.950Z,1.23
2022-10-05T11:12:02.245Z,1.40
2022-10-05T11:18:12.250Z,1.65
2022-10-05T11:24:45.728Z,1.27
2022-10-05T11:31:00.716Z,1.23
2022-10-05T11:37:12.815Z,1.10
2022-10-05T11:43:25.106Z,1.52
2022-10-05T11:49:35.409Z,1.25
2022-10-05T11:55:42.740Z,1.30
2022-10-05T12:01:49.675Z,1.15
2022-10-05T12:08:07.870Z,1.00
2022-10-05T12:14:18.055Z,1.45
2022-10-05T12:20:25.860Z,1.50
2022-10-05T12:26:32.968Z,1.80
2022-10-05T12:32:41.777Z,1.83
2022-10-05T12:38:48.083Z,1.20
2022-10-05T12:45:04.956Z,1.30
2022-10-05T12:51:11.226Z,1.63
2022-10-05T12:57:17.494Z,1.48
2022-10-05T13:03:27.194Z,1.50
2022-10-05T13:09:35.940Z,1.42
2022-10-05T13:15:43.606Z,1.95
2022-10-05T13:21:56.139Z,1.27
2022-10-05T13:28:10.860Z,1.60
2022-10-05T13:34:19.753Z,1.50
2022-10-05T13:40:29.005Z,7.28
2022-10-05T13:46:38.323Z,2.17
2022-10-05T13:52:46.759Z,5.00
2022-10-05T13:58:52.627Z,2.45
2022-10-05T14:05:02.285Z,2.60
2022-10-05T14:11:20.647Z,2.30
2022-10-05T14:17:48.186Z,2.20
2022-10-05T14:23:56.997Z,2.22
2022-10-05T14:30:01.710Z,2.50
2022-10-05T14:36:12.255Z,3.40
2022-10-05T14:42:18.386Z,3.50
2022-10-05T14:48:21.811Z,3.70
2022-10-05T14:54:49.228Z,3.17
2022-10-05T15:00:57.019Z,2.90
2022-10-05T15:07:07.104Z,3.47
2022-10-05T15:13:14.155Z,2.80
2022-10-05T15:19:20.994Z,2.83
2022-10-05T15:25:27.954Z,2.83
2022-10-05T15:31:34.482Z,2.72
2022-10-05T15:37:43.193Z,2.47
2022-10-05T15:43:55.373Z,2.72
2022-10-05T15:50:03.445Z,3.20
2022-10-05T15:56:11.186Z,3.10
2022-10-05T16:02:18.332Z,3.20
2022-10-05T16:08:51.515Z,4.18
2022-10-05T16:15:02.844Z,3.03
2022-10-05T16:21:14.199Z,2.53
2022-10-05T16:27:21.813Z,2.50
2022-10-05T16:33:30.321Z,3.10
2022-10-05T16:39:51.511Z,3.63
2022-10-05T16:46:00.279Z,2.53
2022-10-05T16:52:07.102Z,2.95
2022-10-05T16:58:15.663Z,3.30
2022-10-05T17:04:25.038Z,3.40
2022-10-05T17:10:46.546Z,2.65
2022-10-05T17:16:58.881Z,3.00
2022-10-05T17:23:05.959Z,3.42
2022-10-05T17:29:16.185Z,2.20
2022-10-05T17:35:22.329Z,2.72
2022-10-05T17:41:26.774Z,2.38
2022-10-05T17:47:47.495Z,3.35
2022-10-05T17:54:10.831Z,3.00
2022-10-05T18:00:31.578Z,2.50
2022-10-05T18:06:37.496Z,1.70
2022-10-05T18:12:48.294Z,1.70
2022-10-05T18:18:58.907Z,2.10
2022-10-05T18:25:05.875Z,1.73
2022-10-05T18:31:21.463Z,2.00
2022-10-05T18:37:31.696Z,2.08
2022-10-05T18:43:40.802Z,1.80
2022-10-05T18:49:51.840Z,2.15
2022-10-05T18:55:57.720Z,1.50
2022-10-05T19:02:12.066Z,1.58
2022-10-05T19:08:19.858Z,1.75
2022-10-05T19:14:28.197Z,1.90
2022-10-05T19:20:35.601Z,2.17
2022-10-05T19:26:46.995Z,1.58
2022-10-05T19:33:04.674Z,1.60
2022-10-05T19:39:10.707Z,1.40
2022-10-05T19:45:18.971Z,1.80
2022-10-05T19:51:29.494Z,1.30
2022-10-05T19:57:33.384Z,1.45
2022-10-05T20:03:41.414Z,1.38
2022-10-05T20:10:06.558Z,1.50
2022-10-05T20:16:41.437Z,1.38
2022-10-05T20:22:55.665Z,1.08
2022-10-05T20:29:05.216Z,1.35
2022-10-05T20:35:16.350Z,1.40
2022-10-05T20:41:32.414Z,1.73
2022-10-05T20:47:47.462Z,1.33
2022-10-05T20:54:21.205Z,0.95
2022-10-05T21:00:49.512Z,1.10
2022-10-05T21:06:52.988Z,1.10
2022-10-05T21:13:05.903Z,1.23
2022-10-05T21:19:17.114Z,0.90
2022-10-05T21:25:20.864Z,1.35
2022-10-05T21:31:35.638Z,0.85
2022-10-05T21:37:50.347Z,1.00
2022-10-05T21:43:55.304Z,1.00
2022-10-05T21:50:00.680Z,1.27
2022-10-05T21:56:24.987Z,1.23
2022-10-05T22:02:35.086Z,0.90
2022-10-05T22:08:48.999Z,0.90
2022-10-05T22:14:56.445Z,1.13
2022-10-05T22:21:06.767Z,1.27
2022-10-05T22:27:18.375Z,1.08
2022-10-05T22:33:23.583Z,1.05
2022-10-05T22:39:27.149Z,1.00
2022-10-05T22:45:32.872Z,0.82
2022-10-05T22:51:53.400Z,1.30
2022-10-05T22:57:57.183Z,0.90
2022-10-05T23:04:03.735Z,1.23
2022-10-05T23:10:12.027Z,1.20
2022-10-05T23:16:20.744Z,1.20
2022-10-05T23:22:36.006Z,1.25
2022-10-05T23:28:47.422Z,1.20
2022-10-05T23:34:51.376Z,1.25
2022-10-05T23:40:59.460Z,1.30
2022-10-05T23:53:43.648Z,1.95
2022-10-05T23:59:58.887Z,1.70
